NCAR-RAP Real-Time Weather Data

Output produced by METARs form (17 December 2018  14:41 UTC)
found at http://weather.rap.ucar.edu/surface/
 
RJBD 171000Z 33016KT 9999 FEW020 SCT035 BKN060 10/04 Q1012
RJBD 170900Z 35011KT 9999 FEW020 SCT035 BKN060 10/06 Q1011
RJBD 170800Z 35012KT 9999 FEW025 SCT035 BKN060 10/05 Q1011
RJBD 170700Z 34013G24KT 9999 FEW025 SCT030 BKN060 11/05 Q1010
RJBD 170600Z 34020G30KT 9999 FEW040 SCT060 12/04 Q1009
RJBD 170500Z 34018G30KT 9999 FEW040 SCT060 13/03 Q1008
RJBD 170400Z 34016KT 9999 FEW030 SCT050 13/04 Q1009
RJBD 170300Z 35016KT 9999 FEW030 SCT050 13/03 Q1009
RJBD 170200Z 34019KT 9999 FEW025 BKN050 12/04 Q1010
RJBD 170100Z 35015KT 9999 FEW020 BKN050 12/06 Q1010
RJBD 170000Z 35013KT 9999 FEW008 SCT030 BKN060 11/08 Q1010
RJBD 162300Z 34015KT 9999 FEW008 BKN020 BKN050 11/08 Q1010
RJBD 162240Z 33016KT 9999 FEW008 SCT020 BKN050 11/08 Q1010 RMK 1ST008 3CU020 6SC050 A2982
RJBD 161000Z 12007KT 9999 -RA FEW020 SCT040 BKN070 11/08 Q1017
RJBD 160900Z 13009KT 9999 -RA FEW020 SCT040 BKN060 12/07 Q1018
RJBD 160800Z 11005KT 080V140 9999 VCSH FEW025 SCT060 BKN070 12/07 Q1018
RJBD 160700Z 10006KT 9999 FEW030 SCT080 BKN100 12/06 Q1019
RJBD 160600Z 12007KT 100V180 9999 FEW030 SCT070 BKN120 13/05 Q1020
RJBD 160500Z 12008KT 9999 VCSH FEW030 SCT050 BKN090 12/05 Q1020
RJBD 160400Z 15005KT 9999 VCSH FEW030 SCT050 BKN090 12/05 Q1021
RJBD 160300Z 14006KT 9999 FEW030 SCT050 BKN/// 13/05 Q1023
RJBD 160200Z 12003KT 020V160 9999 FEW030 BKN/// 11/03 Q1024
RJBD 160100Z 14003KT 100V190 9999 FEW030 BKN/// 09/03 Q1025
RJBD 160000Z 15003KT 120V190 9999 FEW030 SCT045 BKN180 07/03 Q1025
RJBD 151000Z 34011KT 9999 FEW030 07/M03 Q1028
RJBD 150900Z 34011KT 9999 FEW030 07/M03 Q1028
RJBD 150800Z 34014KT 9999 FEW030 07/M03 Q1027
RJBD 150700Z 33014KT 9999 FEW030 08/M03 Q1027
RJBD 150600Z 33013KT 9999 FEW030 10/M02 Q1027
RJBD 150500Z 34016KT 9999 FEW030 10/M03 Q1027
RJBD 150400Z 34015KT 9999 FEW030 11/M03 Q1027
RJBD 150300Z 35015KT 320V030 9999 FEW030 10/M03 Q1027